createdAt,value
2019-04-20T00:00:10.936Z,1008.29
2019-04-20T00:01:12.551Z,1008.35
2019-04-20T00:02:14.291Z,1008.30
2019-04-20T00:03:09.697Z,1008.31
2019-04-20T00:04:17.050Z,1008.32
2019-04-20T00:05:09.394Z,1008.31
2019-04-20T00:06:09.263Z,1008.33
2019-04-20T00:07:10.164Z,1008.33
2019-04-20T00:08:17.867Z,1008.34
2019-04-20T00:09:15.875Z,1008.29
2019-04-20T00:10:15.072Z,1008.33
2019-04-20T00:11:17.656Z,1008.34
2019-04-20T00:12:18.046Z,1008.29
2019-04-20T00:13:21.600Z,1008.30
2019-04-20T00:14:16.215Z,1008.27
2019-04-20T00:15:09.514Z,1008.27
2019-04-20T00:16:10.265Z,1008.24
2019-04-20T00:17:09.592Z,1008.25
2019-04-20T00:18:11.428Z,1008.25
2019-04-20T00:19:10.676Z,1008.24
2019-04-20T00:20:15.947Z,1008.22
2019-04-20T00:21:14.124Z,1008.23
2019-04-20T00:22:12.350Z,1008.25
2019-04-20T00:23:12.386Z,1008.26
2019-04-20T00:24:18.670Z,1008.24
2019-04-20T00:25:14.089Z,1008.21
2019-04-20T00:26:17.334Z,1008.24
2019-04-20T00:27:31.322Z,1008.22
2019-04-20T00:28:30.214Z,1008.18
2019-04-20T00:29:31.687Z,1008.20
2019-04-20T00:30:31.449Z,1008.15
2019-04-20T00:31:28.313Z,1008.20
2019-04-20T00:32:19.972Z,1008.22
2019-04-20T00:33:27.296Z,1008.20
2019-04-20T00:34:18.317Z,1008.19
2019-04-20T00:35:10.494Z,1008.22
2019-04-20T00:36:11.750Z,1008.22
2019-04-20T00:37:10.884Z,1008.20
2019-04-20T00:38:10.418Z,1008.19
2019-04-20T00:39:13.138Z,1008.17
2019-04-20T00:40:10.496Z,1008.21
2019-04-20T00:41:13.691Z,1008.19
2019-04-20T00:42:13.357Z,1008.19
2019-04-20T00:43:13.281Z,1008.13
2019-04-20T00:44:17.257Z,1008.17
2019-04-20T00:45:18.158Z,1008.17
2019-04-20T00:46:18.295Z,1008.13
2019-04-20T00:47:21.691Z,1008.16
2019-04-20T00:48:23.221Z,1008.14
2019-04-20T00:49:29.226Z,1008.09
2019-04-20T00:50:29.106Z,1008.10
2019-04-20T00:51:48.147Z,1008.09
2019-04-20T00:52:27.651Z,1008.12
2019-04-20T00:53:21.630Z,1008.13
2019-04-20T00:54:11.497Z,1008.13
2019-04-20T00:55:11.135Z,1008.17
2019-04-20T00:56:11.897Z,1008.13
2019-04-20T00:57:21.760Z,1008.19
2019-04-20T00:58:20.197Z,1008.18
2019-04-20T00:59:25.765Z,1008.14
2019-04-20T01:00:27.417Z,1008.17
2019-04-20T01:01:31.021Z,1008.13
2019-04-20T01:02:27.264Z,1008.14
2019-04-20T01:03:32.345Z,1008.08
2019-04-20T01:04:30.722Z,1008.08
2019-04-20T01:05:22.902Z,1008.10
2019-04-20T01:06:26.911Z,1008.10
2019-04-20T01:07:24.414Z,1008.14
2019-04-20T01:08:12.850Z,1008.11
2019-04-20T01:09:11.932Z,1008.14
2019-04-20T01:10:13.072Z,1008.13
2019-04-20T01:11:12.340Z,1008.14
2019-04-20T01:12:17.377Z,1008.11
2019-04-20T01:13:17.024Z,1008.15
2019-04-20T01:14:14.163Z,1008.14
2019-04-20T01:15:23.022Z,1008.10
2019-04-20T01:16:27.603Z,1008.10
2019-04-20T01:17:13.283Z,1008.07
2019-04-20T01:18:14.040Z,1008.08
2019-04-20T01:19:12.021Z,1008.10
2019-04-20T01:20:12.059Z,1008.08
2019-04-20T01:21:17.833Z,1008.11
2019-04-20T01:22:15.928Z,1008.07
2019-04-20T01:23:17.296Z,1008.10
2019-04-20T01:24:20.159Z,1008.08
2019-04-20T01:25:19.551Z,1008.07
2019-04-20T01:26:17.181Z,1008.08
2019-04-20T01:27:27.349Z,1008.10
2019-04-20T01:28:29.923Z,1008.09
2019-04-20T01:29:21.579Z,1008.09
2019-04-20T01:30:20.988Z,1008.05
2019-04-20T01:31:22.100Z,1008.09
2019-04-20T01:32:23.300Z,1008.06
2019-04-20T01:33:26.024Z,1008.06
2019-04-20T01:34:26.659Z,1008.09
2019-04-20T01:35:31.626Z,1008.03
2019-04-20T01:36:33.433Z,1008.05
2019-04-20T01:37:25.776Z,1008.06
2019-04-20T01:38:30.739Z,1008.10
2019-04-20T01:39:25.361Z,1008.08
2019-04-20T01:40:13.059Z,1008.06
2019-04-20T01:41:14.024Z,1008.08
2019-04-20T01:42:13.109Z,1008.06
2019-04-20T01:43:14.168Z,1008.10
2019-04-20T01:44:13.452Z,1008.09
2019-04-20T01:45:19.837Z,1008.09
2019-04-20T01:46:17.137Z,1008.09
2019-04-20T01:47:13.395Z,1008.12
2019-04-20T01:48:20.276Z,1008.12
2019-04-20T01:49:18.278Z,1008.13
2019-04-20T01:50:20.311Z,1008.13
2019-04-20T01:51:20.769Z,1008.12
2019-04-20T01:52:20.281Z,1008.13
2019-04-20T01:53:24.774Z,1008.10
2019-04-20T01:54:25.826Z,1008.11
2019-04-20T01:55:27.832Z,1008.14
2019-04-20T01:56:27.486Z,1008.12
2019-04-20T01:57:21.861Z,1008.16
2019-04-20T01:58:36.352Z,1008.14
2019-04-20T01:59:26.617Z,1008.16
2019-04-20T02:00:21.080Z,1008.15
2019-04-20T02:01:21.015Z,1008.16
2019-04-20T02:02:17.770Z,1008.14
2019-04-20T02:03:14.917Z,1008.10
2019-04-20T02:04:21.353Z,1008.15
2019-04-20T02:05:20.625Z,1008.15
2019-04-20T02:06:18.250Z,1008.13
2019-04-20T02:07:18.412Z,1008.15
2019-04-20T02:08:19.804Z,1008.13
2019-04-20T02:09:19.155Z,1008.11
2019-04-20T02:10:16.569Z,1008.09
2019-04-20T02:11:21.962Z,1008.12
2019-04-20T02:12:20.291Z,1008.13
2019-04-20T02:13:15.290Z,1008.10
2019-04-20T02:14:23.323Z,1008.12
2019-04-20T02:15:23.197Z,1008.09
2019-04-20T02:16:22.683Z,1008.11
2019-04-20T02:17:21.367Z,1008.09
2019-04-20T02:18:29.710Z,1008.12
2019-04-20T02:19:30.706Z,1008.15
2019-04-20T02:20:35.931Z,1008.16
2019-04-20T02:21:27.606Z,1008.15
2019-04-20T02:22:34.247Z,1008.19
2019-04-20T02:23:25.171Z,1008.16
2019-04-20T02:24:16.083Z,1008.17
2019-04-20T02:25:14.572Z,1008.14
2019-04-20T02:26:15.908Z,1008.18
2019-04-20T02:27:14.784Z,1008.20
2019-04-20T02:28:36.195Z,1008.21
2019-04-20T02:29:34.866Z,1008.21
2019-04-20T02:30:47.534Z,1008.23
2019-04-20T02:31:55.619Z,1008.18
2019-04-20T02:32:47.682Z,1008.21
2019-04-20T02:34:53.746Z,1008.17
2019-04-20T02:35:56.685Z,1008.20
2019-04-20T02:37:56.805Z,1008.18
2019-04-20T02:39:11.732Z,1008.21
2019-04-20T02:39:57.918Z,1008.18
2019-04-20T02:40:51.042Z,1008.18
2019-04-20T02:41:53.352Z,1008.19
2019-04-20T02:42:50.847Z,1008.20
2019-04-20T02:44:01.307Z,1008.19
2019-04-20T02:44:49.880Z,1008.19
2019-04-20T02:45:45.332Z,1008.19
2019-04-20T02:46:46.918Z,1008.24
2019-04-20T02:47:47.342Z,1008.21
2019-04-20T02:48:55.897Z,1008.23
2019-04-20T02:50:56.265Z,1008.21
2019-04-20T02:51:46.920Z,1008.26
2019-04-20T02:54:14.074Z,1008.24
2019-04-20T02:54:48.982Z,1008.26
2019-04-20T02:55:50.024Z,1008.25
2019-04-20T02:56:58.807Z,1008.24
2019-04-20T02:57:58.453Z,1008.21
2019-04-20T02:58:50.251Z,1008.25
2019-04-20T03:00:38.245Z,1008.17
2019-04-20T03:01:36.655Z,1008.18
2019-04-20T03:02:33.556Z,1008.18
2019-04-20T03:03:26.940Z,1008.18
2019-04-20T03:04:25.685Z,1008.16
2019-04-20T03:05:28.242Z,1008.17
2019-04-20T03:06:26.717Z,1008.16
2019-04-20T03:07:31.128Z,1008.17
2019-04-20T03:08:33.030Z,1008.19
2019-04-20T03:09:38.930Z,1008.17
2019-04-20T03:10:43.016Z,1008.17
2019-04-20T03:11:48.225Z,1008.18
2019-04-20T03:12:38.389Z,1008.19
2019-04-20T03:13:36.753Z,1008.18
2019-04-20T03:14:32.453Z,1008.19
2019-04-20T03:15:37.661Z,1008.19
2019-04-20T03:16:37.481Z,1008.21
2019-04-20T03:17:38.642Z,1008.20
2019-04-20T03:18:34.994Z,1008.19
2019-04-20T03:19:36.222Z,1008.20
2019-04-20T03:20:41.678Z,1008.17
2019-04-20T03:21:37.959Z,1008.21
2019-04-20T03:23:01.086Z,1008.17
2019-04-20T03:23:42.822Z,1008.22
2019-04-20T03:24:43.693Z,1008.19
2019-04-20T03:25:36.034Z,1008.22
2019-04-20T03:26:36.444Z,1008.19
2019-04-20T03:27:33.033Z,1008.15
2019-04-20T03:28:37.580Z,1008.21
2019-04-20T03:29:43.870Z,1008.18
2019-04-20T03:34:05.849Z,1008.17
2019-04-20T03:35:43.175Z,1008.22
2019-04-20T03:36:49.552Z,1008.21
2019-04-20T03:37:42.172Z,1008.24
2019-04-20T03:38:35.854Z,1008.20
2019-04-20T03:39:31.316Z,1008.21
2019-04-20T03:40:36.356Z,1008.18
2019-04-20T03:41:26.108Z,1008.21
2019-04-20T03:42:18.174Z,1008.21
2019-04-20T03:43:18.098Z,1008.20
2019-04-20T03:44:21.500Z,1008.26
2019-04-20T03:45:20.149Z,1008.19
2019-04-20T03:46:25.463Z,1008.22
2019-04-20T03:47:30.391Z,1008.20
2019-04-20T03:48:38.137Z,1008.18
2019-04-20T03:49:43.679Z,1008.21
2019-04-20T03:50:41.293Z,1008.19
2019-04-20T03:51:41.897Z,1008.17
2019-04-20T03:52:37.618Z,1008.18
2019-04-20T03:53:39.270Z,1008.18
2019-04-20T03:54:33.317Z,1008.18
2019-04-20T03:55:37.000Z,1008.22
2019-04-20T03:56:42.003Z,1008.25
2019-04-20T03:57:40.688Z,1008.18
2019-04-20T03:58:33.425Z,1008.20
2019-04-20T03:59:39.333Z,1008.23
2019-04-20T04:00:37.504Z,1008.26
2019-04-20T04:02:04.668Z,1008.24
2019-04-20T04:02:54.215Z,1008.20
2019-04-20T04:03:48.803Z,1008.21
2019-04-20T04:04:38.694Z,1008.21
2019-04-20T04:05:36.968Z,1008.18
2019-04-20T04:06:32.857Z,1008.21
2019-04-20T04:07:28.344Z,1008.21
2019-04-20T04:08:27.803Z,1008.18
2019-04-20T04:09:29.201Z,1008.20
2019-04-20T04:10:30.502Z,1008.22
2019-04-20T04:11:34.823Z,1008.21
2019-04-20T04:12:28.432Z,1008.24
2019-04-20T04:13:18.862Z,1008.25
2019-04-20T04:14:19.846Z,1008.23
2019-04-20T04:15:19.007Z,1008.25
2019-04-20T04:16:21.904Z,1008.27
2019-04-20T04:17:25.002Z,1008.25
2019-04-20T04:18:25.992Z,1008.26
2019-04-20T04:19:25.169Z,1008.25
2019-04-20T04:20:21.021Z,1008.25
2019-04-20T04:21:35.134Z,1008.25
2019-04-20T04:22:37.936Z,1008.27
2019-04-20T04:23:37.831Z,1008.26
2019-04-20T04:24:30.668Z,1008.28
2019-04-20T04:25:31.675Z,1008.27
2019-04-20T04:26:34.060Z,1008.29
2019-04-20T04:27:40.524Z,1008.29
2019-04-20T04:28:37.334Z,1008.28
2019-04-20T04:29:42.936Z,1008.29
2019-04-20T04:30:34.212Z,1008.30
2019-04-20T04:31:40.903Z,1008.30
2019-04-20T04:33:02.431Z,1008.34
2019-04-20T04:33:53.263Z,1008.34
2019-04-20T04:34:38.738Z,1008.34
2019-04-20T04:35:31.172Z,1008.35
2019-04-20T04:36:36.026Z,1008.36
2019-04-20T04:37:37.639Z,1008.32
2019-04-20T04:38:43.508Z,1008.35
2019-04-20T04:39:47.185Z,1008.38
2019-04-20T04:40:49.494Z,1008.36
2019-04-20T04:41:38.082Z,1008.40
2019-04-20T04:42:42.288Z,1008.41
2019-04-20T04:43:40.204Z,1008.39
2019-04-20T04:44:34.314Z,1008.37
2019-04-20T04:45:24.023Z,1008.42
2019-04-20T04:46:20.691Z,1008.41
2019-04-20T04:47:19.975Z,1008.40
2019-04-20T04:48:27.683Z,1008.38
2019-04-20T04:49:30.694Z,1008.38
2019-04-20T04:50:24.796Z,1008.40
2019-04-20T04:51:25.641Z,1008.41
2019-04-20T04:52:28.751Z,1008.43
2019-04-20T04:53:32.000Z,1008.41
2019-04-20T04:54:28.793Z,1008.42
2019-04-20T04:55:34.110Z,1008.43
2019-04-20T04:56:23.425Z,1008.44
2019-04-20T04:57:20.349Z,1008.40
2019-04-20T04:58:21.582Z,1008.45
2019-04-20T04:59:21.375Z,1008.42
2019-04-20T05:00:24.666Z,1008.47
2019-04-20T05:01:25.931Z,1008.46
2019-04-20T05:02:23.606Z,1008.46
2019-04-20T05:03:41.280Z,1008.50
2019-04-20T05:04:40.136Z,1008.49
2019-04-20T05:05:41.353Z,1008.51
2019-04-20T05:06:33.199Z,1008.50
2019-04-20T05:07:34.269Z,1008.53
2019-04-20T05:08:27.328Z,1008.49
2019-04-20T05:09:22.184Z,1008.55
2019-04-20T05:10:20.840Z,1008.48
2019-04-20T05:11:21.721Z,1008.51
2019-04-20T05:12:24.267Z,1008.51
2019-04-20T05:13:21.942Z,1008.51
2019-04-20T05:14:27.093Z,1008.51
2019-04-20T05:15:34.875Z,1008.52
2019-04-20T05:16:43.177Z,1008.52
2019-04-20T05:17:43.840Z,1008.52
2019-04-20T05:18:44.965Z,1008.53
2019-04-20T05:19:45.780Z,1008.53
2019-04-20T05:20:41.732Z,1008.52
2019-04-20T05:21:49.869Z,1008.52
2019-04-20T05:22:42.880Z,1008.51
2019-04-20T05:23:35.394Z,1008.51
2019-04-20T05:24:34.869Z,1008.54
2019-04-20T05:25:37.789Z,1008.55
2019-04-20T05:26:42.679Z,1008.52
2019-04-20T05:27:39.741Z,1008.54
2019-04-20T05:28:33.598Z,1008.52
2019-04-20T05:29:27.374Z,1008.54
2019-04-20T05:30:22.416Z,1008.55
2019-04-20T05:31:24.454Z,1008.54
2019-04-20T05:32:32.577Z,1008.51
2019-04-20T05:33:34.390Z,1008.51
2019-04-20T05:34:45.211Z,1008.50
2019-04-20T05:35:47.654Z,1008.56
2019-04-20T05:36:42.766Z,1008.54
2019-04-20T05:37:48.854Z,1008.57
2019-04-20T05:39:02.458Z,1008.57
2019-04-20T05:39:44.415Z,1008.55
2019-04-20T05:40:38.989Z,1008.57
2019-04-20T05:41:41.753Z,1008.54
2019-04-20T05:42:44.233Z,1008.58
2019-04-20T05:43:38.316Z,1008.57
2019-04-20T05:44:44.292Z,1008.62
2019-04-20T05:45:38.036Z,1008.60
2019-04-20T05:46:42.423Z,1008.56
2019-04-20T05:47:43.145Z,1008.55
2019-04-20T05:48:48.768Z,1008.57
2019-04-20T05:49:40.394Z,1008.57
2019-04-20T05:50:42.404Z,1008.61
2019-04-20T05:51:53.967Z,1008.61
2019-04-20T05:52:50.233Z,1008.60
2019-04-20T05:53:45.981Z,1008.60
2019-04-20T05:54:46.048Z,1008.66
2019-04-20T05:55:43.200Z,1008.66
2019-04-20T05:57:00.570Z,1008.67
2019-04-20T05:57:41.683Z,1008.65
2019-04-20T05:58:38.773Z,1008.66
2019-04-20T05:59:51.772Z,1008.66
2019-04-20T06:00:51.258Z,1008.65
2019-04-20T06:01:49.922Z,1008.63
2019-04-20T06:02:45.863Z,1008.62
2019-04-20T06:03:42.353Z,1008.60
2019-04-20T06:04:56.000Z,1008.57
2019-04-20T06:05:54.823Z,1008.63
2019-04-20T06:06:45.112Z,1008.64
2019-04-20T06:07:42.399Z,1008.62
2019-04-20T06:08:57.061Z,1008.61
2019-04-20T06:09:46.361Z,1008.62
2019-04-20T06:10:45.631Z,1008.64
2019-04-20T06:11:56.204Z,1008.67
2019-04-20T06:12:40.032Z,1008.70
2019-04-20T06:13:38.328Z,1008.69
2019-04-20T06:14:39.194Z,1008.70
2019-04-20T06:15:43.441Z,1008.70
2019-04-20T06:16:52.170Z,1008.65
2019-04-20T06:17:44.544Z,1008.70
2019-04-20T06:18:39.067Z,1008.67
2019-04-20T06:19:39.611Z,1008.67
2019-04-20T06:21:12.105Z,1008.70
2019-04-20T06:22:03.365Z,1008.69
2019-04-20T06:22:48.551Z,1008.69
2019-04-20T06:23:51.942Z,1008.71
2019-04-20T06:24:59.168Z,1008.68
2019-04-20T06:25:54.818Z,1008.64
2019-04-20T06:27:48.923Z,1008.70
2019-04-20T06:28:38.833Z,1008.66
2019-04-20T06:29:47.030Z,1008.71
2019-04-20T06:30:38.673Z,1008.70
2019-04-20T06:31:45.689Z,1008.69
2019-04-20T06:32:49.679Z,1008.68
2019-04-20T06:34:01.436Z,1008.68
2019-04-20T06:34:50.094Z,1008.67
2019-04-20T06:36:04.925Z,1008.64
2019-04-20T06:37:06.954Z,1008.66
2019-04-20T06:37:54.865Z,1008.67
2019-04-20T06:40:58.008Z,1008.69
2019-04-20T06:42:48.182Z,1008.68
2019-04-20T06:43:45.797Z,1008.69
2019-04-20T06:44:41.336Z,1008.70
2019-04-20T06:45:51.287Z,1008.74
2019-04-20T06:46:57.040Z,1008.72
2019-04-20T06:47:48.586Z,1008.73
2019-04-20T06:48:46.124Z,1008.74
2019-04-20T06:49:38.015Z,1008.71
2019-04-20T06:50:44.452Z,1008.70
2019-04-20T06:51:47.614Z,1008.72
2019-04-20T06:52:37.322Z,1008.72
2019-04-20T06:53:47.575Z,1008.70
2019-04-20T06:54:45.182Z,1008.75
2019-04-20T06:55:48.453Z,1008.73
2019-04-20T06:56:52.509Z,1008.72
2019-04-20T06:57:46.418Z,1008.70
2019-04-20T06:59:08.406Z,1008.68
2019-04-20T06:59:47.705Z,1008.69
2019-04-20T07:00:48.201Z,1008.68
2019-04-20T07:01:57.026Z,1008.69
2019-04-20T07:04:02.252Z,1008.64
2019-04-20T07:04:54.478Z,1008.67
2019-04-20T07:05:47.712Z,1008.67
2019-04-20T07:06:56.263Z,1008.68
2019-04-20T07:07:47.501Z,1008.65
2019-04-20T07:08:56.936Z,1008.67
2019-04-20T07:10:02.451Z,1008.65
2019-04-20T07:10:56.413Z,1008.67
2019-04-20T07:11:46.677Z,1008.60
2019-04-20T07:12:41.960Z,1008.59
2019-04-20T07:13:37.396Z,1008.60
2019-04-20T07:14:37.943Z,1008.63
2019-04-20T07:15:40.193Z,1008.61
2019-04-20T07:16:45.063Z,1008.58
2019-04-20T07:18:01.779Z,1008.59
2019-04-20T07:18:50.319Z,1008.59
2019-04-20T07:19:44.426Z,1008.60
2019-04-20T07:20:55.455Z,1008.56
2019-04-20T07:22:06.976Z,1008.57
2019-04-20T07:22:46.644Z,1008.57
2019-04-20T07:23:47.972Z,1008.55
2019-04-20T07:24:53.238Z,1008.54
2019-04-20T07:25:47.822Z,1008.53
2019-04-20T07:26:54.399Z,1008.54
2019-04-20T07:27:47.928Z,1008.56
2019-04-20T07:28:54.474Z,1008.57
2019-04-20T07:29:52.310Z,1008.53
2019-04-20T07:30:46.398Z,1008.55
2019-04-20T07:31:44.189Z,1008.58
2019-04-20T07:32:52.701Z,1008.58
2019-04-20T07:33:46.348Z,1008.56
2019-04-20T07:34:47.551Z,1008.58
2019-04-20T07:35:46.153Z,1008.58
2019-04-20T07:37:04.614Z,1008.59
2019-04-20T07:38:21.478Z,1008.59
2019-04-20T07:38:52.455Z,1008.60
2019-04-20T07:39:40.194Z,1008.59
2019-04-20T07:40:41.928Z,1008.60
2019-04-20T07:41:54.733Z,1008.57
2019-04-20T07:42:52.631Z,1008.59
2019-04-20T07:43:58.977Z,1008.62
2019-04-20T07:44:42.794Z,1008.60
2019-04-20T07:45:46.608Z,1008.55
2019-04-20T07:47:07.299Z,1008.60
2019-04-20T07:48:51.910Z,1008.61
2019-04-20T07:49:45.735Z,1008.58
2019-04-20T07:50:40.968Z,1008.58
2019-04-20T07:51:33.900Z,1008.54
2019-04-20T07:52:42.190Z,1008.55
2019-04-20T07:53:40.306Z,1008.52
2019-04-20T07:55:06.390Z,1008.53
2019-04-20T07:55:51.037Z,1008.53
2019-04-20T07:56:50.513Z,1008.53
2019-04-20T07:57:41.886Z,1008.50
2019-04-20T07:58:36.946Z,1008.53
2019-04-20T07:59:48.820Z,1008.51
2019-04-20T08:00:58.669Z,1008.52
2019-04-20T08:01:54.764Z,1008.47
2019-04-20T08:02:56.073Z,1008.49
2019-04-20T08:03:50.528Z,1008.47
2019-04-20T08:04:42.232Z,1008.45
2019-04-20T08:05:39.236Z,1008.43
2019-04-20T08:06:36.878Z,1008.46
2019-04-20T08:07:39.068Z,1008.45
2019-04-20T08:08:43.965Z,1008.48
2019-04-20T08:09:37.931Z,1008.52
2019-04-20T08:10:39.419Z,1008.47
2019-04-20T08:12:57.686Z,1008.47
2019-04-20T08:13:51.440Z,1008.45
2019-04-20T08:14:57.545Z,1008.47
2019-04-20T08:15:51.265Z,1008.47
2019-04-20T08:17:05.313Z,1008.44
2019-04-20T08:17:51.295Z,1008.43
2019-04-20T08:18:50.726Z,1008.42
2019-04-20T08:19:48.459Z,1008.44
2019-04-20T08:20:52.647Z,1008.42
2019-04-20T08:21:50.026Z,1008.39
2019-04-20T08:22:51.685Z,1008.42
2019-04-20T08:23:49.060Z,1008.39
2019-04-20T08:24:46.804Z,1008.41
2019-04-20T08:25:42.841Z,1008.41
2019-04-20T08:26:35.997Z,1008.42
2019-04-20T08:27:29.720Z,1008.39
2019-04-20T08:28:36.017Z,1008.38
2019-04-20T08:29:44.202Z,1008.33
2019-04-20T08:30:41.903Z,1008.34
2019-04-20T08:31:41.615Z,1008.33
2019-04-20T08:32:48.134Z,1008.33
2019-04-20T08:33:58.456Z,1008.35
2019-04-20T08:34:47.515Z,1008.35
2019-04-20T08:35:52.458Z,1008.34
2019-04-20T08:36:52.542Z,1008.31
2019-04-20T08:38:12.204Z,1008.35
2019-04-20T08:39:58.794Z,1008.29
2019-04-20T08:40:49.008Z,1008.32
2019-04-20T08:41:50.120Z,1008.33
2019-04-20T08:43:05.490Z,1008.33
2019-04-20T08:43:53.887Z,1008.28
2019-04-20T08:45:51.070Z,1008.23
2019-04-20T08:47:00.057Z,1008.20
2019-04-20T08:47:59.480Z,1008.22
2019-04-20T08:48:50.942Z,1008.26
2019-04-20T08:49:56.643Z,1008.23
2019-04-20T08:50:53.307Z,1008.24
2019-04-20T08:51:55.644Z,1008.25
2019-04-20T08:53:54.093Z,1008.26
2019-04-20T08:54:41.684Z,1008.23
2019-04-20T08:55:46.593Z,1008.19
2019-04-20T08:56:39.370Z,1008.20
2019-04-20T08:57:31.323Z,1008.17
2019-04-20T08:58:31.491Z,1008.19
2019-04-20T08:59:33.199Z,1008.17
2019-04-20T09:00:35.786Z,1008.17
2019-04-20T09:01:32.691Z,1008.18
2019-04-20T09:02:30.527Z,1008.16
2019-04-20T09:03:41.989Z,1008.16
2019-04-20T09:04:38.793Z,1008.15
2019-04-20T09:05:42.487Z,1008.16
2019-04-20T09:06:45.688Z,1008.11
2019-04-20T09:07:35.102Z,1008.14
2019-04-20T09:08:44.479Z,1008.16
2019-04-20T09:09:49.408Z,1008.17
2019-04-20T09:10:49.200Z,1008.11
2019-04-20T09:11:49.602Z,1008.10
2019-04-20T09:12:45.351Z,1008.08
2019-04-20T09:13:39.604Z,1008.07
2019-04-20T09:14:34.683Z,1008.08
2019-04-20T09:15:32.028Z,1008.08
2019-04-20T09:16:40.904Z,1008.06
2019-04-20T09:17:40.959Z,1008.04
2019-04-20T09:18:41.770Z,1008.05
2019-04-20T09:19:44.565Z,1008.05
2019-04-20T09:20:46.246Z,1008.02
2019-04-20T09:21:41.663Z,1008.07
2019-04-20T09:22:40.204Z,1008.06
2019-04-20T09:23:49.689Z,1008.06
2019-04-20T09:24:52.848Z,1008.07
2019-04-20T09:26:47.947Z,1008.08
2019-04-20T09:27:40.861Z,1008.09
2019-04-20T09:28:41.724Z,1008.05
2019-04-20T09:29:40.730Z,1008.05
2019-04-20T09:30:42.877Z,1008.04
2019-04-20T09:31:43.566Z,1008.03
2019-04-20T09:32:44.261Z,1008.03
2019-04-20T09:33:48.673Z,1007.98
2019-04-20T09:34:54.351Z,1007.95
2019-04-20T09:35:52.208Z,1007.92
2019-04-20T09:36:46.127Z,1007.93
2019-04-20T09:37:48.253Z,1007.96
2019-04-20T09:38:44.358Z,1007.93
2019-04-20T09:39:44.974Z,1007.92
2019-04-20T09:40:54.301Z,1007.92
2019-04-20T09:41:55.050Z,1007.92
2019-04-20T09:42:32.050Z,1007.89
2019-04-20T09:43:32.427Z,1007.89
2019-04-20T09:44:38.694Z,1007.89
2019-04-20T09:45:38.211Z,1007.93
2019-04-20T09:46:37.781Z,1007.83
2019-04-20T09:47:36.998Z,1007.89
2019-04-20T09:48:40.244Z,1007.89
2019-04-20T09:49:42.537Z,1007.89
2019-04-20T09:50:53.121Z,1007.89
2019-04-20T09:51:50.069Z,1007.88
2019-04-20T09:52:52.640Z,1007.85
2019-04-20T09:53:43.127Z,1007.86
2019-04-20T09:54:52.582Z,1007.85
2019-04-20T09:55:50.649Z,1007.83
2019-04-20T09:56:55.285Z,1007.85
2019-04-20T09:57:50.306Z,1007.83
2019-04-20T09:58:56.327Z,1007.80
2019-04-20T09:59:52.709Z,1007.83
2019-04-20T10:00:48.634Z,1007.84
2019-04-20T10:01:41.846Z,1007.84
2019-04-20T10:02:36.356Z,1007.85
2019-04-20T10:03:32.991Z,1007.81
2019-04-20T10:04:33.435Z,1007.82
2019-04-20T10:05:33.688Z,1007.79
2019-04-20T10:06:35.615Z,1007.74
2019-04-20T10:07:35.612Z,1007.77
2019-04-20T10:08:40.376Z,1007.74
2019-04-20T10:09:39.515Z,1007.75
2019-04-20T10:10:39.974Z,1007.75
2019-04-20T10:11:33.350Z,1007.74
2019-04-20T10:12:33.562Z,1007.70
2019-04-20T10:13:34.342Z,1007.72
2019-04-20T10:14:33.487Z,1007.74
2019-04-20T10:15:33.540Z,1007.72
2019-04-20T10:16:33.660Z,1007.73
2019-04-20T10:17:35.187Z,1007.64
2019-04-20T10:18:39.296Z,1007.68
2019-04-20T10:19:35.959Z,1007.60
2019-04-20T10:20:37.889Z,1007.62
2019-04-20T10:21:33.997Z,1007.63
2019-04-20T10:22:33.898Z,1007.62
2019-04-20T10:23:34.560Z,1007.65
2019-04-20T10:24:34.792Z,1007.61
2019-04-20T10:25:33.983Z,1007.59
2019-04-20T10:26:34.451Z,1007.62
2019-04-20T10:27:34.742Z,1007.61
2019-04-20T10:28:34.119Z,1007.60
2019-04-20T10:29:35.476Z,1007.57
2019-04-20T10:30:34.721Z,1007.57
2019-04-20T10:31:37.701Z,1007.54
2019-04-20T10:32:39.333Z,1007.52
2019-04-20T10:33:35.521Z,1007.58
2019-04-20T10:34:34.726Z,1007.53
2019-04-20T10:35:35.823Z,1007.53
2019-04-20T10:36:35.335Z,1007.54
2019-04-20T10:37:35.481Z,1007.56
2019-04-20T10:38:36.450Z,1007.52
2019-04-20T10:39:34.642Z,1007.55
2019-04-20T10:40:50.320Z,1007.53
2019-04-20T10:41:44.151Z,1007.48
2019-04-20T10:42:34.759Z,1007.51
2019-04-20T10:43:35.017Z,1007.46
2019-04-20T10:44:34.847Z,1007.54
2019-04-20T10:45:35.066Z,1007.55
2019-04-20T10:46:35.065Z,1007.50
2019-04-20T10:47:35.018Z,1007.55
2019-04-20T10:48:40.251Z,1007.48
2019-04-20T10:49:35.373Z,1007.47
2019-04-20T10:50:35.122Z,1007.48
2019-04-20T10:51:35.584Z,1007.49
2019-04-20T10:52:36.069Z,1007.53
2019-04-20T10:53:36.604Z,1007.53
2019-04-20T10:54:36.476Z,1007.49
2019-04-20T10:55:35.568Z,1007.49
2019-04-20T10:56:35.395Z,1007.45
2019-04-20T10:57:35.463Z,1007.45
2019-04-20T10:58:35.856Z,1007.44
2019-04-20T10:59:35.534Z,1007.50
2019-04-20T11:00:35.624Z,1007.52
2019-04-20T11:01:35.839Z,1007.48
2019-04-20T11:02:35.680Z,1007.48
2019-04-20T11:03:36.582Z,1007.45
2019-04-20T11:04:36.772Z,1007.53
2019-04-20T11:05:35.823Z,1007.50
2019-04-20T11:06:36.478Z,1007.49
2019-04-20T11:07:36.706Z,1007.51
2019-04-20T11:08:35.951Z,1007.40
2019-04-20T11:09:36.646Z,1007.50
2019-04-20T11:10:51.075Z,1007.50
2019-04-20T11:11:37.068Z,1007.45
2019-04-20T11:12:36.127Z,1007.44
2019-04-20T11:13:37.493Z,1007.56
2019-04-20T11:14:38.727Z,1007.40
2019-04-20T11:15:36.689Z,1007.41
2019-04-20T11:16:36.314Z,1007.43
2019-04-20T11:17:37.400Z,1007.40
2019-04-20T11:18:37.586Z,1007.42
2019-04-20T11:19:37.128Z,1007.42
2019-04-20T11:20:37.294Z,1007.41
2019-04-20T11:21:36.591Z,1007.40
2019-04-20T11:22:37.959Z,1007.39
2019-04-20T11:23:36.643Z,1007.36
2019-04-20T11:24:36.685Z,1007.33
2019-04-20T11:25:37.975Z,1007.38
2019-04-20T11:26:38.867Z,1007.36
2019-04-20T11:27:36.814Z,1007.38
2019-04-20T11:28:37.816Z,1007.37
2019-04-20T11:29:38.038Z,1007.31
2019-04-20T11:30:38.057Z,1007.31
2019-04-20T11:31:43.101Z,1007.26
2019-04-20T11:32:37.990Z,1007.33
2019-04-20T11:33:38.292Z,1007.34
2019-04-20T11:34:39.965Z,1007.29
2019-04-20T11:35:39.646Z,1007.29
2019-04-20T11:36:37.232Z,1007.27
2019-04-20T11:37:37.377Z,1007.23
2019-04-20T11:38:38.575Z,1007.22
2019-04-20T11:39:37.368Z,1007.27
2019-04-20T11:40:37.413Z,1007.22
2019-04-20T11:41:38.849Z,1007.17
2019-04-20T11:42:37.508Z,1007.15
2019-04-20T11:43:37.762Z,1007.19
2019-04-20T11:44:38.243Z,1007.16
2019-04-20T11:45:38.517Z,1007.19
2019-04-20T11:46:38.798Z,1007.14
2019-04-20T11:47:37.787Z,1007.12
2019-04-20T11:48:37.783Z,1007.08
2019-04-20T11:49:37.831Z,1007.09
2019-04-20T11:50:37.941Z,1007.05
2019-04-20T11:51:39.186Z,1007.07
2019-04-20T11:52:42.244Z,1007.09
2019-04-20T11:53:38.573Z,1007.07
2019-04-20T11:54:38.066Z,1007.03
2019-04-20T11:55:38.331Z,1007.00
2019-04-20T11:56:40.811Z,1007.07
2019-04-20T11:57:39.501Z,1007.02
2019-04-20T11:58:38.821Z,1007.04
2019-04-20T11:59:39.053Z,1007.04
2019-04-20T12:00:47.170Z,1007.11
2019-04-20T12:01:49.030Z,1007.08
2019-04-20T12:02:42.507Z,1007.07
2019-04-20T12:03:50.607Z,1007.03
2019-04-20T12:04:48.872Z,1007.00
2019-04-20T12:05:44.495Z,1007.02
2019-04-20T12:06:39.134Z,1007.00
2019-04-20T12:07:38.686Z,1007.02
2019-04-20T12:08:40.567Z,1006.95
2019-04-20T12:09:39.707Z,1006.92
2019-04-20T12:10:39.192Z,1006.90
2019-04-20T12:11:53.484Z,1006.89
2019-04-20T12:12:42.459Z,1006.92
2019-04-20T12:13:38.938Z,1006.88
2019-04-20T12:14:38.996Z,1006.92
2019-04-20T12:15:39.049Z,1006.90
2019-04-20T12:16:39.585Z,1006.92
2019-04-20T12:17:39.778Z,1006.91
2019-04-20T12:18:39.171Z,1006.90
2019-04-20T12:19:39.795Z,1006.89
2019-04-20T12:20:39.266Z,1006.83
2019-04-20T12:21:39.306Z,1006.83
2019-04-20T12:22:40.025Z,1006.82
2019-04-20T12:23:40.345Z,1006.84
2019-04-20T12:24:40.329Z,1006.86
2019-04-20T12:25:41.065Z,1006.85